METAR Formatted Surface Weather Observation
Issued by NWS

Current Version | Previous Version | Text Only | Print | Product List | Glossary On
Versions: 1 2 3 4 5 6 7 8 9 10 11 12 13 14 15 16 17 18 19 20 21 22 23
976
SAUS44 KBMX 301000
MTREUF
METAR KEUF 300958Z AUTO 00000KT 10SM CLR 10/08 A3003 RMK AO2 SLP166
T01000083



USA.gov is the U.S. government's official web portal to all federal, state and local government web resources and services.